sensor_id;sensor_type;location;lat;lon;timestamp;temperature;humidity
2751;DHT22;1383;48.362;10.908;2023-09-08T00:00:27;18.40;63.20
2751;DHT22;1383;48.362;10.908;2023-09-08T00:02:54;18.40;63.20
2751;DHT22;1383;48.362;10.908;2023-09-08T00:05:20;18.50;63.50
2751;DHT22;1383;48.362;10.908;2023-09-08T00:11:09;18.40;64.10
2751;DHT22;1383;48.362;10.908;2023-09-08T00:13:36;18.30;64.80
2751;DHT22;1383;48.362;10.908;2023-09-08T00:16:03;18.20;65.40
2751;DHT22;1383;48.362;10.908;2023-09-08T00:18:30;18.20;65.50
2751;DHT22;1383;48.362;10.908;2023-09-08T00:20:58;18.10;65.60
2751;DHT22;1383;48.362;10.908;2023-09-08T00:23:25;18.10;66.00
2751;DHT22;1383;48.362;10.908;2023-09-08T00:25:54;18.00;66.20
2751;DHT22;1383;48.362;10.908;2023-09-08T00:28:20;18.00;66.40
2751;DHT22;1383;48.362;10.908;2023-09-08T00:30:47;18.00;66.20
2751;DHT22;1383;48.362;10.908;2023-09-08T00:33:14;17.90;66.90
2751;DHT22;1383;48.362;10.908;2023-09-08T00:35:44;17.70;67.80
2751;DHT22;1383;48.362;10.908;2023-09-08T00:38:11;17.60;68.70
2751;DHT22;1383;48.362;10.908;2023-09-08T00:40:38;17.50;69.50
2751;DHT22;1383;48.362;10.908;2023-09-08T00:43:05;17.40;70.50
2751;DHT22;1383;48.362;10.908;2023-09-08T00:45:36;17.40;70.70
2751;DHT22;1383;48.362;10.908;2023-09-08T00:48:05;17.30;70.70
2751;DHT22;1383;48.362;10.908;2023-09-08T00:50:33;17.30;71.10
2751;DHT22;1383;48.362;10.908;2023-09-08T00:53:01;17.20;71.00
2751;DHT22;1383;48.362;10.908;2023-09-08T00:55:28;17.30;70.90
2751;DHT22;1383;48.362;10.908;2023-09-08T00:57:55;17.20;70.40
2751;DHT22;1383;48.362;10.908;2023-09-08T01:00:22;17.20;70.40
2751;DHT22;1383;48.362;10.908;2023-09-08T01:02:49;17.20;69.80
2751;DHT22;1383;48.362;10.908;2023-09-08T01:05:16;17.00;70.90
2751;DHT22;1383;48.362;10.908;2023-09-08T01:07:44;16.90;71.80
2751;DHT22;1383;48.362;10.908;2023-09-08T01:10:11;16.90;72.30
2751;DHT22;1383;48.362;10.908;2023-09-08T01:12:39;16.90;72.20
2751;DHT22;1383;48.362;10.908;2023-09-08T01:15:06;16.90;71.80
2751;DHT22;1383;48.362;10.908;2023-09-08T01:17:34;16.80;71.70
2751;DHT22;1383;48.362;10.908;2023-09-08T01:20:06;16.80;72.00
2751;DHT22;1383;48.362;10.908;2023-09-08T01:25:29;16.50;72.90
2751;DHT22;1383;48.362;10.908;2023-09-08T01:28:00;16.50;74.10
2751;DHT22;1383;48.362;10.908;2023-09-08T01:30:29;16.50;74.40
2751;DHT22;1383;48.362;10.908;2023-09-08T01:32:59;16.50;74.10
2751;DHT22;1383;48.362;10.908;2023-09-08T01:35:27;16.60;74.30
2751;DHT22;1383;48.362;10.908;2023-09-08T01:37:54;16.50;73.50
2751;DHT22;1383;48.362;10.908;2023-09-08T01:40:20;16.50;73.60
2751;DHT22;1383;48.362;10.908;2023-09-08T01:42:48;16.40;73.80
2751;DHT22;1383;48.362;10.908;2023-09-08T01:45:18;16.30;74.30
2751;DHT22;1383;48.362;10.908;2023-09-08T01:47:45;16.20;75.10
2751;DHT22;1383;48.362;10.908;2023-09-08T01:50:12;16.20;75.20
2751;DHT22;1383;48.362;10.908;2023-09-08T01:52:39;16.20;75.60
2751;DHT22;1383;48.362;10.908;2023-09-08T01:55:06;16.10;75.50
2751;DHT22;1383;48.362;10.908;2023-09-08T01:57:34;16.20;75.70
2751;DHT22;1383;48.362;10.908;2023-09-08T02:06:34;16.20;74.90
2751;DHT22;1383;48.362;10.908;2023-09-08T02:09:01;16.30;74.60
2751;DHT22;1383;48.362;10.908;2023-09-08T02:11:27;16.30;74.70
2751;DHT22;1383;48.362;10.908;2023-09-08T02:14:00;16.40;73.90
2751;DHT22;1383;48.362;10.908;2023-09-08T02:16:27;16.50;74.50
2751;DHT22;1383;48.362;10.908;2023-09-08T02:18:55;16.50;73.30
2751;DHT22;1383;48.362;10.908;2023-09-08T02:21:22;16.50;72.50
2751;DHT22;1383;48.362;10.908;2023-09-08T02:23:49;16.60;71.60
2751;DHT22;1383;48.362;10.908;2023-09-08T02:26:16;16.40;71.50
2751;DHT22;1383;48.362;10.908;2023-09-08T02:28:43;16.20;72.60
2751;DHT22;1383;48.362;10.908;2023-09-08T02:31:10;16.20;72.90
2751;DHT22;1383;48.362;10.908;2023-09-08T02:33:37;16.20;73.50
2751;DHT22;1383;48.362;10.908;2023-09-08T02:36:05;16.20;73.40
2751;DHT22;1383;48.362;10.908;2023-09-08T02:38:32;16.20;73.60
2751;DHT22;1383;48.362;10.908;2023-09-08T02:41:02;16.20;73.50
2751;DHT22;1383;48.362;10.908;2023-09-08T02:43:29;16.20;73.30
2751;DHT22;1383;48.362;10.908;2023-09-08T02:45:57;16.10;73.80
2751;DHT22;1383;48.362;10.908;2023-09-08T02:48:24;16.00;74.80
2751;DHT22;1383;48.362;10.908;2023-09-08T02:51:08;16.00;74.90
2751;DHT22;1383;48.362;10.908;2023-09-08T02:53:35;15.90;75.30
2751;DHT22;1383;48.362;10.908;2023-09-08T02:56:02;15.80;76.10
2751;DHT22;1383;48.362;10.908;2023-09-08T02:58:32;15.70;76.40
2751;DHT22;1383;48.362;10.908;2023-09-08T03:01:15;15.70;76.40
2751;DHT22;1383;48.362;10.908;2023-09-08T03:03:43;15.70;76.20
2751;DHT22;1383;48.362;10.908;2023-09-08T03:06:11;15.80;75.70
2751;DHT22;1383;48.362;10.908;2023-09-08T03:08:38;15.80;75.70
2751;DHT22;1383;48.362;10.908;2023-09-08T03:11:05;15.70;76.10
2751;DHT22;1383;48.362;10.908;2023-09-08T03:13:33;15.70;75.80
2751;DHT22;1383;48.362;10.908;2023-09-08T03:16:07;15.60;75.70
2751;DHT22;1383;48.362;10.908;2023-09-08T03:18:35;15.60;76.40
2751;DHT22;1383;48.362;10.908;2023-09-08T03:21:04;15.60;76.10
2751;DHT22;1383;48.362;10.908;2023-09-08T03:23:41;15.60;75.60
2751;DHT22;1383;48.362;10.908;2023-09-08T03:26:08;15.50;75.20
2751;DHT22;1383;48.362;10.908;2023-09-08T03:28:36;15.40;76.50
2751;DHT22;1383;48.362;10.908;2023-09-08T03:31:05;15.40;76.50
2751;DHT22;1383;48.362;10.908;2023-09-08T03:33:32;15.40;76.80
2751;DHT22;1383;48.362;10.908;2023-09-08T03:36:00;15.50;76.40
2751;DHT22;1383;48.362;10.908;2023-09-08T03:38:27;15.50;75.90
2751;DHT22;1383;48.362;10.908;2023-09-08T03:40:54;15.60;75.60
2751;DHT22;1383;48.362;10.908;2023-09-08T03:43:21;15.60;75.00
2751;DHT22;1383;48.362;10.908;2023-09-08T03:45:48;15.50;74.60
2751;DHT22;1383;48.362;10.908;2023-09-08T03:48:15;15.40;75.50
2751;DHT22;1383;48.362;10.908;2023-09-08T03:50:44;15.30;75.90
2751;DHT22;1383;48.362;10.908;2023-09-08T03:53:12;15.30;75.80
2751;DHT22;1383;48.362;10.908;2023-09-08T03:55:40;15.20;76.60
2751;DHT22;1383;48.362;10.908;2023-09-08T03:58:07;15.10;76.70
2751;DHT22;1383;48.362;10.908;2023-09-08T04:00:34;15.20;76.70
2751;DHT22;1383;48.362;10.908;2023-09-08T04:03:02;15.20;76.70
2751;DHT22;1383;48.362;10.908;2023-09-08T04:05:29;15.10;76.10
2751;DHT22;1383;48.362;10.908;2023-09-08T04:07:56;15.00;77.10
2751;DHT22;1383;48.362;10.908;2023-09-08T04:10:23;15.00;77.50
2751;DHT22;1383;48.362;10.908;2023-09-08T04:12:54;15.00;77.20
2751;DHT22;1383;48.362;10.908;2023-09-08T04:15:21;15.00;76.80
2751;DHT22;1383;48.362;10.908;2023-09-08T04:17:48;15.00;76.90
2751;DHT22;1383;48.362;10.908;2023-09-08T04:20:15;15.00;77.30
2751;DHT22;1383;48.362;10.908;2023-09-08T04:22:43;14.90;76.80
2751;DHT22;1383;48.362;10.908;2023-09-08T04:25:10;14.90;77.40
2751;DHT22;1383;48.362;10.908;2023-09-08T04:27:38;14.90;78.40
2751;DHT22;1383;48.362;10.908;2023-09-08T04:30:05;14.90;78.60
2751;DHT22;1383;48.362;10.908;2023-09-08T04:32:33;14.90;78.40
2751;DHT22;1383;48.362;10.908;2023-09-08T04:35:00;14.90;78.70
2751;DHT22;1383;48.362;10.908;2023-09-08T04:37:27;15.00;79.40
2751;DHT22;1383;48.362;10.908;2023-09-08T04:39:54;15.00;79.30
2751;DHT22;1383;48.362;10.908;2023-09-08T04:42:21;15.10;78.70
2751;DHT22;1383;48.362;10.908;2023-09-08T04:44:49;15.10;76.90
2751;DHT22;1383;48.362;10.908;2023-09-08T04:47:16;15.10;76.50
2751;DHT22;1383;48.362;10.908;2023-09-08T04:49:43;15.10;76.50
2751;DHT22;1383;48.362;10.908;2023-09-08T04:52:11;15.10;76.40
2751;DHT22;1383;48.362;10.908;2023-09-08T04:54:38;15.10;75.70
2751;DHT22;1383;48.362;10.908;2023-09-08T04:57:06;15.10;75.40
2751;DHT22;1383;48.362;10.908;2023-09-08T04:59:49;15.10;75.30
2751;DHT22;1383;48.362;10.908;2023-09-08T05:02:16;15.20;74.60
2751;DHT22;1383;48.362;10.908;2023-09-08T05:04:45;15.30;74.40
2751;DHT22;1383;48.362;10.908;2023-09-08T05:07:12;15.30;73.90
2751;DHT22;1383;48.362;10.908;2023-09-08T05:09:40;15.20;73.10
2751;DHT22;1383;48.362;10.908;2023-09-08T05:12:07;15.10;73.80
2751;DHT22;1383;48.362;10.908;2023-09-08T05:14:34;15.00;75.00
2751;DHT22;1383;48.362;10.908;2023-09-08T05:17:01;15.00;75.20
2751;DHT22;1383;48.362;10.908;2023-09-08T05:19:28;15.00;75.20
2751;DHT22;1383;48.362;10.908;2023-09-08T05:21:56;15.00;75.60
2751;DHT22;1383;48.362;10.908;2023-09-08T05:24:23;15.00;76.10
2751;DHT22;1383;48.362;10.908;2023-09-08T05:26:52;15.00;76.70
2751;DHT22;1383;48.362;10.908;2023-09-08T05:29:20;15.10;77.30
2751;DHT22;1383;48.362;10.908;2023-09-08T05:31:47;15.10;76.50
2751;DHT22;1383;48.362;10.908;2023-09-08T05:34:14;15.10;77.10
2751;DHT22;1383;48.362;10.908;2023-09-08T05:36:41;15.10;77.30
2751;DHT22;1383;48.362;10.908;2023-09-08T05:39:09;15.30;77.00
2751;DHT22;1383;48.362;10.908;2023-09-08T05:41:37;15.30;75.90
2751;DHT22;1383;48.362;10.908;2023-09-08T05:44:04;15.40;75.40
2751;DHT22;1383;48.362;10.908;2023-09-08T05:46:31;15.40;75.50
2751;DHT22;1383;48.362;10.908;2023-09-08T05:48:59;15.50;75.80
2751;DHT22;1383;48.362;10.908;2023-09-08T05:51:26;15.50;74.90
2751;DHT22;1383;48.362;10.908;2023-09-08T05:53:53;15.60;74.80
2751;DHT22;1383;48.362;10.908;2023-09-08T05:56:20;15.70;74.90
2751;DHT22;1383;48.362;10.908;2023-09-08T05:58:47;15.80;74.70
2751;DHT22;1383;48.362;10.908;2023-09-08T06:01:17;15.90;74.30
2751;DHT22;1383;48.362;10.908;2023-09-08T06:03:48;15.90;73.40
2751;DHT22;1383;48.362;10.908;2023-09-08T06:06:15;15.90;74.40
2751;DHT22;1383;48.362;10.908;2023-09-08T06:08:42;16.00;74.40
2751;DHT22;1383;48.362;10.908;2023-09-08T06:11:09;16.00;75.00
2751;DHT22;1383;48.362;10.908;2023-09-08T06:13:36;16.10;74.80
2751;DHT22;1383;48.362;10.908;2023-09-08T06:16:03;16.30;74.80
2751;DHT22;1383;48.362;10.908;2023-09-08T06:18:30;16.50;73.20
2751;DHT22;1383;48.362;10.908;2023-09-08T06:20:58;16.70;71.70
2751;DHT22;1383;48.362;10.908;2023-09-08T06:23:25;16.80;70.70
2751;DHT22;1383;48.362;10.908;2023-09-08T06:25:56;17.10;69.40
2751;DHT22;1383;48.362;10.908;2023-09-08T06:28:27;17.40;68.50
2751;DHT22;1383;48.362;10.908;2023-09-08T06:30:57;17.80;67.80
2751;DHT22;1383;48.362;10.908;2023-09-08T06:33:25;18.10;63.80
2751;DHT22;1383;48.362;10.908;2023-09-08T06:35:52;18.30;62.00
2751;DHT22;1383;48.362;10.908;2023-09-08T06:38:20;18.60;60.40
2751;DHT22;1383;48.362;10.908;2023-09-08T06:40:47;18.90;59.60
2751;DHT22;1383;48.362;10.908;2023-09-08T06:43:15;19.30;57.50
2751;DHT22;1383;48.362;10.908;2023-09-08T06:45:42;19.50;56.10
2751;DHT22;1383;48.362;10.908;2023-09-08T06:48:09;19.80;55.10
2751;DHT22;1383;48.362;10.908;2023-09-08T06:50:41;19.90;54.00
2751;DHT22;1383;48.362;10.908;2023-09-08T06:53:08;20.20;54.00
2751;DHT22;1383;48.362;10.908;2023-09-08T06:55:35;20.30;51.70
2751;DHT22;1383;48.362;10.908;2023-09-08T06:58:03;20.40;49.90
2751;DHT22;1383;48.362;10.908;2023-09-08T07:00:30;20.60;50.80
2751;DHT22;1383;48.362;10.908;2023-09-08T07:02:57;21.00;49.90
2751;DHT22;1383;48.362;10.908;2023-09-08T07:05:24;21.40;48.40
2751;DHT22;1383;48.362;10.908;2023-09-08T07:07:51;21.50;48.00
2751;DHT22;1383;48.362;10.908;2023-09-08T07:10:20;21.80;46.20
2751;DHT22;1383;48.362;10.908;2023-09-08T07:12:46;22.10;45.60
2751;DHT22;1383;48.362;10.908;2023-09-08T07:15:15;22.40;44.70
2751;DHT22;1383;48.362;10.908;2023-09-08T07:17:45;22.70;43.40
2751;DHT22;1383;48.362;10.908;2023-09-08T07:20:12;22.70;42.80
2751;DHT22;1383;48.362;10.908;2023-09-08T07:22:39;22.70;43.10
2751;DHT22;1383;48.362;10.908;2023-09-08T07:25:07;22.90;42.50
2751;DHT22;1383;48.362;10.908;2023-09-08T07:27:34;23.00;42.40
2751;DHT22;1383;48.362;10.908;2023-09-08T07:30:01;23.10;42.00
2751;DHT22;1383;48.362;10.908;2023-09-08T07:32:29;23.20;41.30
2751;DHT22;1383;48.362;10.908;2023-09-08T07:34:56;23.50;41.30
2751;DHT22;1383;48.362;10.908;2023-09-08T07:37:24;23.70;40.40
2751;DHT22;1383;48.362;10.908;2023-09-08T07:39:51;23.80;40.50
2751;DHT22;1383;48.362;10.908;2023-09-08T07:42:18;24.00;39.10
2751;DHT22;1383;48.362;10.908;2023-09-08T07:44:46;24.00;39.30
2751;DHT22;1383;48.362;10.908;2023-09-08T07:47:13;24.10;39.30
2751;DHT22;1383;48.362;10.908;2023-09-08T07:49:45;24.10;39.10
2751;DHT22;1383;48.362;10.908;2023-09-08T07:52:13;24.30;38.70
2751;DHT22;1383;48.362;10.908;2023-09-08T07:54:40;24.20;38.40
2751;DHT22;1383;48.362;10.908;2023-09-08T07:57:07;24.40;38.70
2751;DHT22;1383;48.362;10.908;2023-09-08T07:59:34;24.70;38.60
2751;DHT22;1383;48.362;10.908;2023-09-08T08:02:03;25.10;37.20
2751;DHT22;1383;48.362;10.908;2023-09-08T08:04:31;24.80;36.20
2751;DHT22;1383;48.362;10.908;2023-09-08T08:06:58;24.70;38.80
2751;DHT22;1383;48.362;10.908;2023-09-08T08:09:25;25.10;37.90
2751;DHT22;1383;48.362;10.908;2023-09-08T08:11:53;25.40;36.80
2751;DHT22;1383;48.362;10.908;2023-09-08T08:14:20;25.70;36.10
2751;DHT22;1383;48.362;10.908;2023-09-08T08:16:47;25.80;36.20
2751;DHT22;1383;48.362;10.908;2023-09-08T08:19:14;25.80;35.30
2751;DHT22;1383;48.362;10.908;2023-09-08T08:21:41;26.10;35.10
2751;DHT22;1383;48.362;10.908;2023-09-08T08:24:09;26.10;35.20
2751;DHT22;1383;48.362;10.908;2023-09-08T08:26:53;26.30;34.80
2751;DHT22;1383;48.362;10.908;2023-09-08T08:29:20;26.50;34.00
2751;DHT22;1383;48.362;10.908;2023-09-08T08:31:47;26.00;33.90
2751;DHT22;1383;48.362;10.908;2023-09-08T08:34:15;25.20;34.60
2751;DHT22;1383;48.362;10.908;2023-09-08T08:36:42;25.20;35.60
2751;DHT22;1383;48.362;10.908;2023-09-08T08:39:10;25.20;35.90
2751;DHT22;1383;48.362;10.908;2023-09-08T08:41:37;25.40;36.90
2751;DHT22;1383;48.362;10.908;2023-09-08T08:44:07;25.70;35.60
2751;DHT22;1383;48.362;10.908;2023-09-08T08:46:36;25.60;35.80
2751;DHT22;1383;48.362;10.908;2023-09-08T08:49:04;25.90;34.90
2751;DHT22;1383;48.362;10.908;2023-09-08T08:51:32;26.10;34.50
2751;DHT22;1383;48.362;10.908;2023-09-08T08:53:59;26.60;34.60
2751;DHT22;1383;48.362;10.908;2023-09-08T08:56:32;27.00;33.70
2751;DHT22;1383;48.362;10.908;2023-09-08T08:59:01;27.10;31.30
2751;DHT22;1383;48.362;10.908;2023-09-08T09:01:28;27.10;31.20
2751;DHT22;1383;48.362;10.908;2023-09-08T09:03:56;26.40;31.50
2751;DHT22;1383;48.362;10.908;2023-09-08T09:06:24;26.40;32.10
2751;DHT22;1383;48.362;10.908;2023-09-08T09:08:51;26.60;31.30
2751;DHT22;1383;48.362;10.908;2023-09-08T09:11:18;26.80;31.80
2751;DHT22;1383;48.362;10.908;2023-09-08T09:13:45;27.20;31.30
2751;DHT22;1383;48.362;10.908;2023-09-08T09:16:12;27.50;30.90
2751;DHT22;1383;48.362;10.908;2023-09-08T09:19:09;27.10;30.10
2751;DHT22;1383;48.362;10.908;2023-09-08T09:24:17;26.90;31.00
2751;DHT22;1383;48.362;10.908;2023-09-08T09:26:51;27.30;30.10
2751;DHT22;1383;48.362;10.908;2023-09-08T09:29:19;26.60;31.00
2751;DHT22;1383;48.362;10.908;2023-09-08T09:31:51;26.10;33.00
2751;DHT22;1383;48.362;10.908;2023-09-08T09:36:52;25.80;33.20
2751;DHT22;1383;48.362;10.908;2023-09-08T09:39:21;26.30;33.20
2751;DHT22;1383;48.362;10.908;2023-09-08T09:41:49;25.90;33.00
2751;DHT22;1383;48.362;10.908;2023-09-08T09:44:19;26.20;32.90
2751;DHT22;1383;48.362;10.908;2023-09-08T09:46:50;26.70;32.20
2751;DHT22;1383;48.362;10.908;2023-09-08T09:49:18;26.70;32.70
2751;DHT22;1383;48.362;10.908;2023-09-08T09:51:50;27.00;32.20
2751;DHT22;1383;48.362;10.908;2023-09-08T09:54:17;27.60;30.00
2751;DHT22;1383;48.362;10.908;2023-09-08T09:56:45;27.50;30.30
2751;DHT22;1383;48.362;10.908;2023-09-08T09:59:17;27.90;30.20
2751;DHT22;1383;48.362;10.908;2023-09-08T10:01:44;28.30;29.40
2751;DHT22;1383;48.362;10.908;2023-09-08T10:04:12;28.50;28.70
2751;DHT22;1383;48.362;10.908;2023-09-08T10:06:43;28.40;28.90
2751;DHT22;1383;48.362;10.908;2023-09-08T10:09:11;28.20;28.80
2751;DHT22;1383;48.362;10.908;2023-09-08T10:11:49;28.20;29.20
2751;DHT22;1383;48.362;10.908;2023-09-08T10:14:17;27.90;30.00
2751;DHT22;1383;48.362;10.908;2023-09-08T10:16:45;28.10;29.30
2751;DHT22;1383;48.362;10.908;2023-09-08T10:19:17;28.40;29.10
2751;DHT22;1383;48.362;10.908;2023-09-08T10:21:52;28.70;28.10
2751;DHT22;1383;48.362;10.908;2023-09-08T10:24:24;28.90;28.00
2751;DHT22;1383;48.362;10.908;2023-09-08T10:27:04;29.20;28.30
2751;DHT22;1383;48.362;10.908;2023-09-08T10:29:32;29.10;27.50
2751;DHT22;1383;48.362;10.908;2023-09-08T10:32:01;28.10;28.40
2751;DHT22;1383;48.362;10.908;2023-09-08T10:34:31;28.10;28.80
2751;DHT22;1383;48.362;10.908;2023-09-08T10:36:59;27.90;28.60
2751;DHT22;1383;48.362;10.908;2023-09-08T10:39:33;27.90;29.20
2751;DHT22;1383;48.362;10.908;2023-09-08T10:47:25;27.90;29.10
2751;DHT22;1383;48.362;10.908;2023-09-08T10:49:53;28.00;29.70
2751;DHT22;1383;48.362;10.908;2023-09-08T10:52:26;28.00;29.50
2751;DHT22;1383;48.362;10.908;2023-09-08T10:54:55;27.90;29.80
2751;DHT22;1383;48.362;10.908;2023-09-08T10:57:24;27.60;29.30
2751;DHT22;1383;48.362;10.908;2023-09-08T10:59:57;27.30;30.00
2751;DHT22;1383;48.362;10.908;2023-09-08T11:02:39;27.30;30.60
2751;DHT22;1383;48.362;10.908;2023-09-08T11:05:09;26.80;30.90
2751;DHT22;1383;48.362;10.908;2023-09-08T11:07:37;26.80;31.40
2751;DHT22;1383;48.362;10.908;2023-09-08T11:10:06;26.80;31.60
2751;DHT22;1383;48.362;10.908;2023-09-08T11:12:33;26.80;32.30
2751;DHT22;1383;48.362;10.908;2023-09-08T11:15:02;26.90;31.40
2751;DHT22;1383;48.362;10.908;2023-09-08T11:17:35;26.50;31.80
2751;DHT22;1383;48.362;10.908;2023-09-08T11:20:03;26.30;32.20
2751;DHT22;1383;48.362;10.908;2023-09-08T11:22:39;26.40;32.50
2751;DHT22;1383;48.362;10.908;2023-09-08T11:25:08;26.50;32.50
2751;DHT22;1383;48.362;10.908;2023-09-08T11:27:39;26.30;32.70
2751;DHT22;1383;48.362;10.908;2023-09-08T11:30:08;26.20;33.50
2751;DHT22;1383;48.362;10.908;2023-09-08T11:32:35;26.10;33.80
2751;DHT22;1383;48.362;10.908;2023-09-08T11:35:07;26.00;33.70
2751;DHT22;1383;48.362;10.908;2023-09-08T11:37:40;25.80;35.40
2751;DHT22;1383;48.362;10.908;2023-09-08T11:40:09;25.90;36.10
2751;DHT22;1383;48.362;10.908;2023-09-08T11:42:40;25.90;35.50
2751;DHT22;1383;48.362;10.908;2023-09-08T11:45:15;25.90;34.90
2751;DHT22;1383;48.362;10.908;2023-09-08T11:47:45;25.90;35.10
2751;DHT22;1383;48.362;10.908;2023-09-08T11:50:12;26.00;36.10
2751;DHT22;1383;48.362;10.908;2023-09-08T11:52:47;26.00;36.10
2751;DHT22;1383;48.362;10.908;2023-09-08T11:55:16;26.00;36.50
2751;DHT22;1383;48.362;10.908;2023-09-08T11:57:46;25.80;36.50
2751;DHT22;1383;48.362;10.908;2023-09-08T12:00:15;25.90;36.70
2751;DHT22;1383;48.362;10.908;2023-09-08T12:02:45;25.90;37.40
2751;DHT22;1383;48.362;10.908;2023-09-08T12:05:14;26.00;37.10
2751;DHT22;1383;48.362;10.908;2023-09-08T12:07:47;25.90;37.20
2751;DHT22;1383;48.362;10.908;2023-09-08T12:10:14;26.00;37.50
2751;DHT22;1383;48.362;10.908;2023-09-08T12:12:46;26.10;37.50
2751;DHT22;1383;48.362;10.908;2023-09-08T12:17:59;26.10;37.10
2751;DHT22;1383;48.362;10.908;2023-09-08T12:20:26;26.20;37.30
2751;DHT22;1383;48.362;10.908;2023-09-08T12:22:53;26.30;37.00
2751;DHT22;1383;48.362;10.908;2023-09-08T12:25:20;26.40;36.40
2751;DHT22;1383;48.362;10.908;2023-09-08T12:27:50;26.40;35.90
2751;DHT22;1383;48.362;10.908;2023-09-08T12:30:20;26.30;36.60
2751;DHT22;1383;48.362;10.908;2023-09-08T12:32:48;26.40;36.40
2751;DHT22;1383;48.362;10.908;2023-09-08T12:35:22;26.40;36.40
2751;DHT22;1383;48.362;10.908;2023-09-08T12:38:05;26.50;37.30
2751;DHT22;1383;48.362;10.908;2023-09-08T12:40:36;26.50;35.80
2751;DHT22;1383;48.362;10.908;2023-09-08T12:43:05;26.60;35.70
2751;DHT22;1383;48.362;10.908;2023-09-08T12:45:52;26.50;35.60
2751;DHT22;1383;48.362;10.908;2023-09-08T12:48:19;26.50;36.20
2751;DHT22;1383;48.362;10.908;2023-09-08T12:50:46;26.50;36.10
2751;DHT22;1383;48.362;10.908;2023-09-08T12:53:15;26.50;36.30
2751;DHT22;1383;48.362;10.908;2023-09-08T12:55:46;26.50;36.50
2751;DHT22;1383;48.362;10.908;2023-09-08T12:58:13;26.50;37.20
2751;DHT22;1383;48.362;10.908;2023-09-08T13:00:43;26.70;36.50
2751;DHT22;1383;48.362;10.908;2023-09-08T13:03:19;26.70;36.10
2751;DHT22;1383;48.362;10.908;2023-09-08T13:05:46;26.80;35.80
2751;DHT22;1383;48.362;10.908;2023-09-08T13:08:13;26.80;35.40
2751;DHT22;1383;48.362;10.908;2023-09-08T13:10:42;26.80;35.60
2751;DHT22;1383;48.362;10.908;2023-09-08T13:13:11;26.80;35.70
2751;DHT22;1383;48.362;10.908;2023-09-08T13:15:38;26.70;35.20
2751;DHT22;1383;48.362;10.908;2023-09-08T13:18:31;26.70;35.00
2751;DHT22;1383;48.362;10.908;2023-09-08T13:21:04;26.70;34.90
2751;DHT22;1383;48.362;10.908;2023-09-08T13:23:31;26.80;35.00
2751;DHT22;1383;48.362;10.908;2023-09-08T13:25:59;26.90;35.00
2751;DHT22;1383;48.362;10.908;2023-09-08T13:28:28;26.90;35.10
2751;DHT22;1383;48.362;10.908;2023-09-08T13:30:55;26.90;35.10
2751;DHT22;1383;48.362;10.908;2023-09-08T13:33:22;27.00;34.90
2751;DHT22;1383;48.362;10.908;2023-09-08T13:35:49;27.10;34.90
2751;DHT22;1383;48.362;10.908;2023-09-08T13:38:16;26.90;34.30
2751;DHT22;1383;48.362;10.908;2023-09-08T13:40:43;26.90;35.00
2751;DHT22;1383;48.362;10.908;2023-09-08T13:43:10;27.00;34.40
2751;DHT22;1383;48.362;10.908;2023-09-08T13:45:38;27.00;33.90
2751;DHT22;1383;48.362;10.908;2023-09-08T13:48:05;27.00;34.00
2751;DHT22;1383;48.362;10.908;2023-09-08T13:50:33;27.00;34.80
2751;DHT22;1383;48.362;10.908;2023-09-08T13:53:03;27.10;33.90
2751;DHT22;1383;48.362;10.908;2023-09-08T13:55:30;27.10;34.20
2751;DHT22;1383;48.362;10.908;2023-09-08T13:58:00;27.10;34.40
2751;DHT22;1383;48.362;10.908;2023-09-08T14:00:29;27.20;33.90
2751;DHT22;1383;48.362;10.908;2023-09-08T14:02:58;27.30;34.10
2751;DHT22;1383;48.362;10.908;2023-09-08T14:05:30;27.30;35.20
2751;DHT22;1383;48.362;10.908;2023-09-08T14:08:03;27.20;34.50
2751;DHT22;1383;48.362;10.908;2023-09-08T14:10:41;27.30;34.60
2751;DHT22;1383;48.362;10.908;2023-09-08T14:13:19;27.10;34.40
2751;DHT22;1383;48.362;10.908;2023-09-08T14:15:46;27.00;34.40
2751;DHT22;1383;48.362;10.908;2023-09-08T14:18:13;27.00;34.40
2751;DHT22;1383;48.362;10.908;2023-09-08T14:20:42;27.00;34.40
2751;DHT22;1383;48.362;10.908;2023-09-08T14:23:09;26.90;34.80
2751;DHT22;1383;48.362;10.908;2023-09-08T14:25:36;27.00;35.00
2751;DHT22;1383;48.362;10.908;2023-09-08T14:28:04;26.90;34.30
2751;DHT22;1383;48.362;10.908;2023-09-08T14:30:34;26.90;34.40
2751;DHT22;1383;48.362;10.908;2023-09-08T14:33:02;26.90;35.10
2751;DHT22;1383;48.362;10.908;2023-09-08T14:35:30;27.00;35.00
2751;DHT22;1383;48.362;10.908;2023-09-08T14:37:57;27.00;34.80
2751;DHT22;1383;48.362;10.908;2023-09-08T14:40:24;27.00;35.30
2751;DHT22;1383;48.362;10.908;2023-09-08T14:42:51;27.00;34.60
2751;DHT22;1383;48.362;10.908;2023-09-08T14:45:20;27.00;34.40
2751;DHT22;1383;48.362;10.908;2023-09-08T14:47:47;27.10;34.90
2751;DHT22;1383;48.362;10.908;2023-09-08T14:50:14;27.20;35.20
2751;DHT22;1383;48.362;10.908;2023-09-08T14:52:42;27.20;35.10
2751;DHT22;1383;48.362;10.908;2023-09-08T14:55:09;27.10;35.00
2751;DHT22;1383;48.362;10.908;2023-09-08T14:57:36;26.90;34.80
2751;DHT22;1383;48.362;10.908;2023-09-08T15:00:04;26.80;35.40
2751;DHT22;1383;48.362;10.908;2023-09-08T15:02:31;26.90;36.00
2751;DHT22;1383;48.362;10.908;2023-09-08T15:04:58;26.90;36.40
2751;DHT22;1383;48.362;10.908;2023-09-08T15:07:25;27.00;37.10
2751;DHT22;1383;48.362;10.908;2023-09-08T15:09:52;27.00;37.50
2751;DHT22;1383;48.362;10.908;2023-09-08T15:12:19;26.90;37.60
2751;DHT22;1383;48.362;10.908;2023-09-08T15:14:46;26.90;37.80
2751;DHT22;1383;48.362;10.908;2023-09-08T15:17:13;26.90;37.30
2751;DHT22;1383;48.362;10.908;2023-09-08T15:19:40;26.90;37.50
2751;DHT22;1383;48.362;10.908;2023-09-08T15:22:07;26.90;37.90
2751;DHT22;1383;48.362;10.908;2023-09-08T15:24:34;26.90;37.20
2751;DHT22;1383;48.362;10.908;2023-09-08T15:27:01;26.80;37.60
2751;DHT22;1383;48.362;10.908;2023-09-08T15:29:29;26.80;37.90
2751;DHT22;1383;48.362;10.908;2023-09-08T15:31:56;26.80;38.10
2751;DHT22;1383;48.362;10.908;2023-09-08T15:34:24;26.80;37.80
2751;DHT22;1383;48.362;10.908;2023-09-08T15:36:53;26.90;37.70
2751;DHT22;1383;48.362;10.908;2023-09-08T15:39:20;26.80;37.90
2751;DHT22;1383;48.362;10.908;2023-09-08T15:41:47;26.70;37.90
2751;DHT22;1383;48.362;10.908;2023-09-08T15:44:14;26.70;38.00
2751;DHT22;1383;48.362;10.908;2023-09-08T15:46:42;26.80;38.10
2751;DHT22;1383;48.362;10.908;2023-09-08T15:49:10;26.80;37.80
2751;DHT22;1383;48.362;10.908;2023-09-08T15:51:37;26.70;37.80
2751;DHT22;1383;48.362;10.908;2023-09-08T15:54:05;26.60;37.90
2751;DHT22;1383;48.362;10.908;2023-09-08T15:56:32;26.60;38.40
2751;DHT22;1383;48.362;10.908;2023-09-08T15:59:01;26.50;38.30
2751;DHT22;1383;48.362;10.908;2023-09-08T16:01:28;26.60;38.50
2751;DHT22;1383;48.362;10.908;2023-09-08T16:03:56;26.50;38.40
2751;DHT22;1383;48.362;10.908;2023-09-08T16:06:23;26.50;38.50
2751;DHT22;1383;48.362;10.908;2023-09-08T16:08:51;26.50;38.70
2751;DHT22;1383;48.362;10.908;2023-09-08T16:11:18;26.50;38.80
2751;DHT22;1383;48.362;10.908;2023-09-08T16:13:45;26.40;38.40
2751;DHT22;1383;48.362;10.908;2023-09-08T16:16:12;26.40;38.20
2751;DHT22;1383;48.362;10.908;2023-09-08T16:18:41;26.40;38.60